100LL.CA
Aviation Fuel Pricing for Canadians
Please upgrade your browser - Tested with IE9, FireFox, Chrome, Safari

Fuel Airports Other Help
Prices Economy Info List METAR/TAF Kneeboard Help

Reference Airport: SHERBROOKE, QC
N 45 26 19  W 071 41 29
Provinces to show:

CYSC SHERBROOKE, QC
WEATHER
METARCYSC 131819Z AUTO 27012KT 9SM SCT020 SCT025 BKN037 BKN044 09/05 A2935 RMK SLP945
TAFTAF CYSC 131740Z 1318/1403 26010G20KT P6SM BKN040 TEMPO 1318/1323 P6SM -SHRA BKN020 FM132300 27012G22KT P6SM -RA OVC030 TEMPO 1323/1403 4SM -SHRA BR OVC015 RMK FCST BASED ON AUTO OBS. NXT FCST BY 140000Z
OTHER SITES

FlightAware

FltPlan

Google Maps

SkyVector
FUEL
FBO 100LL
member
100LL
public
JETA MOGAS
Opr (2022-12-15)2.2501.910
Canada Flight Supplement - CYSC
(opens in new tab/window)


Please Send Updates!

Desktop Version ]  [ Mobile Version ]  [ Disclaimer ]